createdAt,value
2023-10-10T00:01:44.061Z,77.60
2023-10-10T00:04:14.827Z,77.60
2023-10-10T00:06:42.154Z,77.70
2023-10-10T00:09:12.802Z,77.70
2023-10-10T00:11:46.970Z,77.80
2023-10-10T00:14:20.121Z,77.90
2023-10-10T00:16:56.484Z,78.00
2023-10-10T00:19:45.125Z,78.20
2023-10-10T00:22:12.722Z,78.20
2023-10-10T00:24:40.050Z,78.40
2023-10-10T00:27:15.721Z,78.30
2023-10-10T00:29:44.239Z,78.40
2023-10-10T00:32:18.500Z,79.30
2023-10-10T00:34:48.600Z,78.40
2023-10-10T00:37:26.484Z,78.30
2023-10-10T00:40:03.736Z,78.30
2023-10-10T00:42:42.763Z,78.30
2023-10-10T00:45:13.504Z,78.40
2023-10-10T00:47:50.348Z,78.50
2023-10-10T00:50:19.801Z,78.50
2023-10-10T00:52:53.630Z,78.50
2023-10-10T00:55:25.928Z,78.40
2023-10-10T00:58:00.329Z,78.40
2023-10-10T01:00:31.514Z,78.50
2023-10-10T01:03:08.732Z,78.40
2023-10-10T01:05:53.499Z,78.50
2023-10-10T01:08:21.256Z,78.50
2023-10-10T01:10:50.573Z,78.60
2023-10-10T01:13:18.506Z,78.50
2023-10-10T01:15:45.403Z,78.60
2023-10-10T01:18:15.625Z,78.60
2023-10-10T01:20:50.471Z,78.60
2023-10-10T01:23:20.018Z,78.60
2023-10-10T01:25:48.557Z,78.60
2023-10-10T01:28:22.166Z,79.10
2023-10-10T01:30:55.835Z,78.60
2023-10-10T01:33:25.645Z,78.60
2023-10-10T01:35:57.040Z,78.60
2023-10-10T01:38:42.775Z,78.60
2023-10-10T01:41:16.731Z,78.70
2023-10-10T01:43:47.352Z,78.90
2023-10-10T01:46:29.974Z,78.80
2023-10-10T01:48:58.351Z,78.90
2023-10-10T01:51:28.495Z,78.90
2023-10-10T01:53:56.866Z,79.00
2023-10-10T01:56:24.769Z,79.00
2023-10-10T01:58:55.214Z,79.10
2023-10-10T02:01:25.341Z,79.20
2023-10-10T02:03:54.473Z,79.20
2023-10-10T02:06:29.308Z,79.10
2023-10-10T02:09:32.459Z,79.20
2023-10-10T02:12:09.483Z,79.20
2023-10-10T02:14:36.574Z,79.30
2023-10-10T02:17:10.989Z,79.30
2023-10-10T02:19:42.337Z,79.30
2023-10-10T02:22:29.034Z,79.40
2023-10-10T02:25:14.672Z,79.40
2023-10-10T02:27:56.376Z,79.50
2023-10-10T02:30:36.717Z,79.60
2023-10-10T02:33:20.989Z,79.60
2023-10-10T02:35:55.779Z,79.60
2023-10-10T02:38:40.462Z,79.60
2023-10-10T02:41:22.506Z,79.60
2023-10-10T02:43:57.925Z,79.70
2023-10-10T02:46:40.240Z,79.80
2023-10-10T02:49:23.805Z,79.80
2023-10-10T02:51:56.745Z,79.80
2023-10-10T02:54:58.286Z,79.90
2023-10-10T02:57:28.131Z,80.00
2023-10-10T03:00:26.198Z,80.00
2023-10-10T03:02:56.528Z,79.90
2023-10-10T03:05:44.430Z,80.00
2023-10-10T03:08:20.055Z,80.00
2023-10-10T03:10:55.827Z,80.10
2023-10-10T03:13:38.136Z,80.00
2023-10-10T03:16:15.493Z,80.10
2023-10-10T03:19:01.022Z,80.10
2023-10-10T03:21:47.123Z,80.20
2023-10-10T03:24:21.026Z,80.10
2023-10-10T03:26:48.120Z,80.00
2023-10-10T03:29:33.929Z,80.10
2023-10-10T03:32:22.936Z,80.20
2023-10-10T03:35:05.730Z,80.20
2023-10-10T03:37:55.573Z,80.20
2023-10-10T03:40:28.519Z,80.30
2023-10-10T03:43:13.842Z,80.30
2023-10-10T03:46:02.675Z,80.30
2023-10-10T03:48:48.562Z,80.30
2023-10-10T03:51:34.274Z,80.30
2023-10-10T03:54:19.563Z,80.30
2023-10-10T03:57:05.280Z,80.30
2023-10-10T03:59:50.672Z,80.40
2023-10-10T04:02:36.369Z,80.40
2023-10-10T04:05:27.898Z,80.40
2023-10-10T04:08:13.883Z,80.40
2023-10-10T04:11:05.539Z,80.40
2023-10-10T04:13:51.118Z,80.40
2023-10-10T04:16:36.675Z,80.40
2023-10-10T04:19:24.017Z,80.50
2023-10-10T04:22:09.249Z,80.60
2023-10-10T04:24:55.131Z,80.60
2023-10-10T04:27:40.978Z,80.60
2023-10-10T04:30:37.879Z,80.70
2023-10-10T04:33:24.333Z,80.70
2023-10-10T04:36:10.100Z,80.70
2023-10-10T04:38:55.956Z,80.70
2023-10-10T04:41:41.650Z,80.70
2023-10-10T04:44:27.238Z,80.80
2023-10-10T04:47:15.456Z,80.80
2023-10-10T04:50:00.867Z,80.80
2023-10-10T04:52:46.312Z,80.80
2023-10-10T04:55:32.199Z,80.80
2023-10-10T04:58:17.599Z,81.00
2023-10-10T05:01:03.164Z,81.00
2023-10-10T05:03:49.016Z,81.00
2023-10-10T05:06:36.282Z,81.10
2023-10-10T05:09:22.462Z,81.00
2023-10-10T05:12:08.292Z,81.10
2023-10-10T05:14:54.364Z,81.10
2023-10-10T05:17:40.133Z,81.20
2023-10-10T05:20:25.936Z,81.20
2023-10-10T05:23:11.583Z,81.30
2023-10-10T05:25:43.949Z,81.40
2023-10-10T05:28:12.069Z,81.40
2023-10-10T05:30:47.174Z,81.50
2023-10-10T05:33:15.244Z,81.60
2023-10-10T05:35:49.848Z,81.60
2023-10-10T05:38:18.302Z,81.80
2023-10-10T05:40:48.361Z,81.70
2023-10-10T05:43:18.960Z,81.80
2023-10-10T05:45:51.835Z,81.80
2023-10-10T05:48:18.900Z,81.90
2023-10-10T05:50:45.892Z,81.90
2023-10-10T05:53:12.826Z,81.90
2023-10-10T05:55:39.800Z,81.90
2023-10-10T05:58:07.104Z,82.10
2023-10-10T06:00:43.254Z,82.00
2023-10-10T06:03:11.469Z,82.10
2023-10-10T06:05:45.485Z,82.20
2023-10-10T06:08:14.416Z,82.20
2023-10-10T06:10:41.393Z,82.10
2023-10-10T06:13:08.698Z,82.20
2023-10-10T06:15:36.686Z,82.30
2023-10-10T06:18:19.607Z,82.30
2023-10-10T06:21:07.014Z,82.30
2023-10-10T06:23:36.945Z,82.40
2023-10-10T06:26:08.731Z,82.30
2023-10-10T06:28:49.096Z,82.50
2023-10-10T06:33:51.883Z,82.60
2023-10-10T06:36:23.643Z,82.60
2023-10-10T06:39:01.185Z,82.70
2023-10-10T06:41:29.425Z,82.60
2023-10-10T06:43:58.706Z,82.70
2023-10-10T06:46:33.573Z,82.70
2023-10-10T06:49:05.806Z,82.80
2023-10-10T06:51:34.715Z,82.80
2023-10-10T06:54:04.678Z,82.90
2023-10-10T06:56:47.089Z,83.10
2023-10-10T06:59:21.973Z,83.00
2023-10-10T07:01:51.273Z,83.10
2023-10-10T07:04:20.261Z,83.10
2023-10-10T07:06:49.072Z,83.20
2023-10-10T07:09:18.720Z,83.20
2023-10-10T07:11:45.446Z,83.20
2023-10-10T07:14:13.564Z,83.80
2023-10-10T07:16:44.313Z,83.20
2023-10-10T07:19:27.674Z,83.20
2023-10-10T07:21:55.356Z,83.40
2023-10-10T07:24:29.901Z,83.30
2023-10-10T07:27:05.350Z,83.40
2023-10-10T07:29:52.187Z,83.30
2023-10-10T07:32:19.136Z,83.30
2023-10-10T07:34:53.366Z,83.30
2023-10-10T07:37:20.667Z,83.30
2023-10-10T07:39:56.735Z,83.40
2023-10-10T07:42:32.250Z,83.30
2023-10-10T07:45:02.347Z,83.30
2023-10-10T07:47:31.024Z,83.40
2023-10-10T07:50:00.971Z,83.40
2023-10-10T07:52:27.846Z,83.30
2023-10-10T07:54:55.411Z,83.30
2023-10-10T07:57:29.819Z,83.20
2023-10-10T08:00:00.055Z,83.10
2023-10-10T08:02:33.792Z,83.20
2023-10-10T08:05:12.234Z,83.40
2023-10-10T08:07:39.117Z,83.40
2023-10-10T08:10:24.944Z,83.30
2023-10-10T08:12:54.655Z,83.40
2023-10-10T08:15:21.941Z,83.40
2023-10-10T08:17:54.111Z,83.40
2023-10-10T08:20:35.363Z,83.40
2023-10-10T08:23:04.778Z,83.20
2023-10-10T08:25:32.107Z,83.00
2023-10-10T08:28:01.810Z,82.80
2023-10-10T08:30:28.782Z,82.60
2023-10-10T08:32:59.825Z,82.30
2023-10-10T08:35:30.839Z,81.90
2023-10-10T08:37:58.353Z,81.60
2023-10-10T08:40:35.029Z,81.60
2023-10-10T08:43:04.004Z,81.70
2023-10-10T08:45:41.187Z,81.70
2023-10-10T08:48:14.085Z,82.10
2023-10-10T08:50:42.412Z,82.10
2023-10-10T08:53:14.000Z,82.60
2023-10-10T08:55:41.908Z,81.60
2023-10-10T08:58:11.767Z,80.50
2023-10-10T09:00:39.293Z,79.70
2023-10-10T09:03:10.262Z,78.60
2023-10-10T09:05:38.080Z,78.10
2023-10-10T09:08:28.702Z,77.90
2023-10-10T09:10:59.877Z,77.60
2023-10-10T09:13:27.198Z,77.10
2023-10-10T09:15:55.503Z,76.70
2023-10-10T09:18:24.457Z,76.20
2023-10-10T09:20:54.530Z,75.50
2023-10-10T09:23:26.493Z,74.70
2023-10-10T09:26:13.697Z,74.30
2023-10-10T09:28:50.202Z,73.10
2023-10-10T09:31:33.478Z,73.60
2023-10-10T09:34:04.842Z,73.40
2023-10-10T09:36:39.473Z,73.30
2023-10-10T09:39:11.178Z,72.70
2023-10-10T09:41:58.736Z,72.20
2023-10-10T09:44:26.585Z,72.40
2023-10-10T09:47:05.425Z,72.10
2023-10-10T09:49:53.303Z,71.70
2023-10-10T09:52:39.746Z,71.90
2023-10-10T09:55:14.430Z,70.00
2023-10-10T09:58:02.641Z,70.60
2023-10-10T10:00:37.205Z,69.60
2023-10-10T10:03:24.797Z,69.00
2023-10-10T10:06:22.703Z,67.80
2023-10-10T10:09:22.616Z,63.70
2023-10-10T10:11:53.032Z,64.20
2023-10-10T10:15:04.909Z,64.10
2023-10-10T10:17:48.805Z,61.70
2023-10-10T10:21:09.915Z,60.60
2023-10-10T10:23:56.443Z,55.80
2023-10-10T10:26:33.447Z,58.70
2023-10-10T10:29:16.624Z,58.10
2023-10-10T10:31:58.768Z,57.10
2023-10-10T10:34:36.382Z,55.70
2023-10-10T10:37:21.347Z,55.20
2023-10-10T10:40:27.365Z,53.50
2023-10-10T10:42:56.662Z,53.40
2023-10-10T10:45:45.110Z,52.10
2023-10-10T10:48:42.632Z,50.10
2023-10-10T10:51:26.438Z,51.20
2023-10-10T10:54:03.646Z,50.70
2023-10-10T10:56:30.947Z,50.30
2023-10-10T10:59:22.760Z,49.40
2023-10-10T11:01:57.199Z,48.10
2023-10-10T11:04:34.503Z,47.10
2023-10-10T11:07:08.828Z,47.00
2023-10-10T11:09:38.793Z,46.10
2023-10-10T11:12:10.205Z,45.60
2023-10-10T11:14:48.098Z,45.40
2023-10-10T11:17:19.985Z,44.80
2023-10-10T11:19:48.687Z,44.30
2023-10-10T11:22:34.767Z,43.20
2023-10-10T11:25:05.999Z,42.60
2023-10-10T11:27:45.699Z,42.20
2023-10-10T11:30:20.595Z,42.00
2023-10-10T11:32:48.461Z,41.90
2023-10-10T11:35:27.746Z,40.90
2023-10-10T11:38:01.235Z,35.00
2023-10-10T11:40:32.188Z,39.30
2023-10-10T11:43:07.798Z,39.10
2023-10-10T11:56:12.554Z,38.90
2023-10-10T11:58:39.491Z,38.90
2023-10-10T12:01:12.049Z,38.00
2023-10-10T12:03:42.713Z,37.40
2023-10-10T12:06:20.780Z,36.70
2023-10-10T12:08:53.816Z,35.90
2023-10-10T12:11:21.873Z,35.80
2023-10-10T12:16:28.929Z,35.20
2023-10-10T12:18:56.138Z,34.90
2023-10-10T12:21:24.084Z,34.90
2023-10-10T12:24:00.453Z,34.90
2023-10-10T12:26:30.945Z,34.60
2023-10-10T12:28:59.482Z,34.10
2023-10-10T12:31:26.403Z,34.30
2023-10-10T12:33:56.108Z,34.10
2023-10-10T12:36:23.487Z,33.80
2023-10-10T12:38:50.565Z,33.60
2023-10-10T12:41:22.322Z,33.70
2023-10-10T12:43:50.372Z,33.60
2023-10-10T12:46:23.881Z,33.40
2023-10-10T12:48:54.354Z,33.50
2023-10-10T12:51:25.371Z,33.60
2023-10-10T12:54:01.925Z,33.70
2023-10-10T12:56:29.870Z,33.80
2023-10-10T12:59:19.072Z,33.80
2023-10-10T13:01:56.758Z,33.80
2023-10-10T13:04:30.559Z,33.70
2023-10-10T13:07:04.256Z,33.70
2023-10-10T13:09:43.597Z,33.60
2023-10-10T13:12:19.520Z,33.60
2023-10-10T13:14:51.971Z,33.60
2023-10-10T13:17:24.874Z,33.50
2023-10-10T13:19:53.518Z,33.10
2023-10-10T13:22:23.049Z,33.00
2023-10-10T13:24:50.644Z,33.20
2023-10-10T13:27:19.028Z,33.10
2023-10-10T13:29:46.305Z,32.80
2023-10-10T13:32:13.252Z,32.70
2023-10-10T13:34:40.226Z,32.60
2023-10-10T13:37:09.051Z,32.80
2023-10-10T13:39:45.088Z,32.50
2023-10-10T13:42:18.998Z,32.50
2023-10-10T13:44:46.541Z,32.70
2023-10-10T13:47:13.435Z,32.90
2023-10-10T13:49:46.079Z,33.40
2023-10-10T13:52:14.386Z,33.50
2023-10-10T13:54:41.400Z,33.70
2023-10-10T13:57:08.954Z,33.80
2023-10-10T13:59:36.431Z,34.10
2023-10-10T14:02:05.759Z,34.20
2023-10-10T14:04:47.445Z,34.30
2023-10-10T14:07:18.022Z,34.50
2023-10-10T14:10:02.510Z,34.80
2023-10-10T14:12:33.522Z,35.00
2023-10-10T14:15:05.816Z,35.20
2023-10-10T14:17:32.756Z,35.20
2023-10-10T14:20:00.598Z,35.30
2023-10-10T14:22:30.272Z,35.60
2023-10-10T14:25:04.958Z,35.90
2023-10-10T14:27:31.817Z,36.10
2023-10-10T14:29:59.242Z,36.30
2023-10-10T14:32:38.626Z,36.80
2023-10-10T14:35:06.545Z,37.20
2023-10-10T14:37:45.471Z,37.50
2023-10-10T14:40:20.196Z,37.80
2023-10-10T14:42:47.027Z,38.00
2023-10-10T14:45:14.295Z,38.20
2023-10-10T14:47:44.963Z,38.50
2023-10-10T14:50:16.517Z,38.70
2023-10-10T14:52:48.954Z,38.80
2023-10-10T14:55:25.704Z,38.90
2023-10-10T14:57:57.261Z,38.80
2023-10-10T15:00:30.914Z,38.90
2023-10-10T15:02:58.113Z,39.00
2023-10-10T15:05:26.932Z,39.10
2023-10-10T15:07:56.808Z,39.20
2023-10-10T15:10:28.045Z,39.30
2023-10-10T15:12:55.480Z,39.40
2023-10-10T15:15:24.273Z,39.50
2023-10-10T15:17:52.284Z,39.50
2023-10-10T15:20:19.568Z,39.70
2023-10-10T15:22:47.311Z,39.80
2023-10-10T15:25:14.824Z,40.00
2023-10-10T15:27:42.825Z,40.20
2023-10-10T15:30:10.432Z,40.40
2023-10-10T15:32:49.530Z,40.50
2023-10-10T15:35:18.547Z,40.60
2023-10-10T15:37:45.644Z,40.60
2023-10-10T15:40:14.654Z,40.60
2023-10-10T15:42:42.125Z,40.70
2023-10-10T15:45:09.403Z,40.60
2023-10-10T15:47:36.340Z,40.70
2023-10-10T15:50:03.832Z,40.70
2023-10-10T15:52:34.941Z,40.60
2023-10-10T15:55:06.826Z,40.50
2023-10-10T15:57:37.096Z,40.50
2023-10-10T16:00:11.751Z,40.50
2023-10-10T16:02:41.172Z,40.40
2023-10-10T16:05:08.305Z,40.40
2023-10-10T16:07:35.461Z,40.30
2023-10-10T16:10:03.965Z,40.40
2023-10-10T16:12:30.908Z,40.50
2023-10-10T16:14:57.691Z,40.40
2023-10-10T16:17:24.660Z,40.60
2023-10-10T16:19:51.768Z,40.60
2023-10-10T16:22:18.617Z,40.70
2023-10-10T16:24:45.848Z,40.90
2023-10-10T16:27:12.741Z,40.90
2023-10-10T16:29:39.791Z,41.00
2023-10-10T16:32:09.026Z,41.10
2023-10-10T16:34:43.419Z,41.10
2023-10-10T16:37:16.071Z,41.30
2023-10-10T16:39:48.053Z,41.50
2023-10-10T16:42:19.872Z,41.70
2023-10-10T16:44:47.720Z,41.70
2023-10-10T16:47:19.152Z,41.90
2023-10-10T16:49:52.454Z,42.00
2023-10-10T16:52:41.955Z,42.30
2023-10-10T16:55:14.169Z,42.40
2023-10-10T16:57:41.584Z,42.60
2023-10-10T17:00:17.006Z,42.80
2023-10-10T17:02:47.506Z,43.10
2023-10-10T17:05:14.880Z,43.20
2023-10-10T17:07:42.519Z,43.50
2023-10-10T17:10:15.324Z,43.70
2023-10-10T17:12:43.568Z,43.90
2023-10-10T17:15:23.002Z,44.00
2023-10-10T17:17:50.276Z,44.20
2023-10-10T17:20:17.505Z,44.50
2023-10-10T17:22:49.712Z,44.70
2023-10-10T17:25:16.772Z,45.00
2023-10-10T17:27:45.107Z,45.20
2023-10-10T17:30:15.564Z,45.50
2023-10-10T17:32:43.924Z,45.70
2023-10-10T17:35:11.554Z,45.80
2023-10-10T17:37:38.790Z,46.00
2023-10-10T17:40:06.810Z,46.20
2023-10-10T17:42:36.185Z,46.40
2023-10-10T17:45:04.957Z,46.70
2023-10-10T17:47:32.228Z,46.80
2023-10-10T17:49:59.386Z,47.00
2023-10-10T17:52:26.547Z,47.20
2023-10-10T17:54:54.746Z,47.50
2023-10-10T17:57:23.332Z,47.70
2023-10-10T17:59:53.940Z,47.80
2023-10-10T18:02:24.289Z,48.10
2023-10-10T18:04:52.077Z,48.30
2023-10-10T18:07:25.001Z,48.40
2023-10-10T18:09:55.588Z,48.50
2023-10-10T18:12:23.852Z,48.70
2023-10-10T18:14:54.856Z,48.80
2023-10-10T18:17:23.519Z,49.00
2023-10-10T18:19:51.185Z,49.10
2023-10-10T18:22:19.881Z,49.30
2023-10-10T18:24:48.786Z,49.60
2023-10-10T18:27:18.214Z,49.80
2023-10-10T18:29:45.167Z,50.10
2023-10-10T18:32:12.361Z,50.40
2023-10-10T18:34:42.717Z,50.60
2023-10-10T18:37:12.837Z,50.90
2023-10-10T18:39:40.029Z,51.10
2023-10-10T18:42:10.733Z,51.30
2023-10-10T18:44:38.745Z,51.60
2023-10-10T18:47:06.167Z,51.80
2023-10-10T18:49:34.834Z,52.00
2023-10-10T18:52:02.096Z,52.20
2023-10-10T18:54:31.986Z,52.40
2023-10-10T18:57:02.288Z,52.50
2023-10-10T18:59:29.600Z,52.60
2023-10-10T19:01:57.570Z,52.80
2023-10-10T19:04:26.073Z,53.00
2023-10-10T19:06:54.339Z,53.00
2023-10-10T19:09:24.478Z,53.20
2023-10-10T19:11:58.649Z,53.40
2023-10-10T19:14:37.853Z,53.50
2023-10-10T19:17:05.893Z,53.60
2023-10-10T19:19:33.055Z,53.70
2023-10-10T19:22:01.085Z,53.60
2023-10-10T19:24:28.533Z,53.20
2023-10-10T19:26:55.567Z,52.70
2023-10-10T19:29:22.630Z,52.20
2023-10-10T19:31:50.121Z,51.80
2023-10-10T19:34:17.347Z,51.30
2023-10-10T19:36:49.200Z,50.80
2023-10-10T19:39:21.049Z,50.20
2023-10-10T19:41:48.138Z,49.80
2023-10-10T19:44:16.078Z,49.50
2023-10-10T19:46:43.377Z,49.10
2023-10-10T19:49:15.899Z,49.00
2023-10-10T19:51:45.953Z,48.70
2023-10-10T19:54:14.382Z,48.50
2023-10-10T19:56:44.032Z,48.30
2023-10-10T19:59:11.352Z,48.30
2023-10-10T20:01:38.524Z,48.10
2023-10-10T20:06:34.380Z,47.70
2023-10-10T20:09:01.675Z,47.60
2023-10-10T20:11:30.026Z,47.50
2023-10-10T20:13:56.987Z,47.40
2023-10-10T20:19:23.590Z,47.30
2023-10-10T20:21:50.452Z,47.30
2023-10-10T20:24:17.326Z,47.30
2023-10-10T20:26:44.192Z,47.40
2023-10-10T20:29:11.396Z,47.40
2023-10-10T20:31:38.243Z,47.50
2023-10-10T20:34:05.123Z,47.70
2023-10-10T20:36:32.144Z,47.80
2023-10-10T20:38:59.710Z,48.00
2023-10-10T20:41:26.737Z,48.20
2023-10-10T20:43:54.758Z,48.40
2023-10-10T20:46:21.674Z,48.50
2023-10-10T20:48:48.999Z,48.70
2023-10-10T20:51:16.147Z,49.00
2023-10-10T20:53:43.579Z,49.20
2023-10-10T20:56:10.834Z,49.30
2023-10-10T20:58:39.500Z,49.50
2023-10-10T21:01:10.968Z,49.70
2023-10-10T21:03:39.449Z,50.00
2023-10-10T21:06:06.587Z,50.20
2023-10-10T21:08:33.962Z,50.40
2023-10-10T21:11:01.177Z,50.70
2023-10-10T21:13:27.999Z,50.90
2023-10-10T21:15:54.834Z,51.20
2023-10-10T21:18:21.844Z,51.40
2023-10-10T21:21:02.769Z,51.60
2023-10-10T21:23:31.221Z,51.90
2023-10-10T21:25:58.557Z,52.60
2023-10-10T21:28:26.401Z,52.00
2023-10-10T21:30:53.880Z,52.30
2023-10-10T21:33:21.042Z,52.60
2023-10-10T21:35:50.695Z,52.80
2023-10-10T21:38:18.753Z,53.00
2023-10-10T21:40:45.684Z,53.30
2023-10-10T21:43:12.659Z,53.50
2023-10-10T21:45:40.380Z,53.80
2023-10-10T21:48:11.223Z,54.00
2023-10-10T21:50:40.384Z,54.20
2023-10-10T21:53:09.086Z,54.40
2023-10-10T21:55:38.459Z,54.80
2023-10-10T21:58:06.392Z,55.00
2023-10-10T22:00:33.610Z,55.30
2023-10-10T22:03:08.383Z,55.50
2023-10-10T22:05:36.581Z,55.60
2023-10-10T22:08:08.021Z,55.80
2023-10-10T22:10:36.472Z,55.90
2023-10-10T22:13:05.521Z,56.30
2023-10-10T22:15:38.504Z,56.40
2023-10-10T22:18:06.136Z,56.60
2023-10-10T22:20:39.678Z,56.70
2023-10-10T22:23:06.660Z,57.10
2023-10-10T22:25:36.413Z,57.10
2023-10-10T22:28:05.052Z,57.40
2023-10-10T22:30:39.171Z,57.80
2023-10-10T22:33:11.228Z,57.90
2023-10-10T22:35:39.284Z,58.20
2023-10-10T22:38:06.955Z,58.40
2023-10-10T22:40:34.641Z,58.40
2023-10-10T22:43:04.143Z,58.60
2023-10-10T22:45:38.350Z,58.70
2023-10-10T22:48:09.298Z,59.70
2023-10-10T22:50:37.066Z,58.80
2023-10-10T22:53:05.876Z,59.00
2023-10-10T22:55:37.002Z,59.20
2023-10-10T22:58:08.682Z,59.60
2023-10-10T23:00:40.205Z,59.80
2023-10-10T23:03:11.148Z,60.10
2023-10-10T23:05:44.213Z,60.30
2023-10-10T23:08:12.372Z,60.60
2023-10-10T23:10:40.931Z,60.70
2023-10-10T23:13:08.368Z,61.00
2023-10-10T23:15:38.145Z,61.20
2023-10-10T23:18:11.398Z,61.50
2023-10-10T23:20:42.479Z,61.70
2023-10-10T23:23:11.182Z,61.70
2023-10-10T23:28:13.400Z,62.10
2023-10-10T23:30:41.960Z,62.30
2023-10-10T23:33:13.957Z,62.60
2023-10-10T23:35:41.656Z,62.70
2023-10-10T23:38:09.749Z,62.70
2023-10-10T23:40:40.446Z,63.00
2023-10-10T23:43:09.213Z,63.10
2023-10-10T23:45:43.165Z,63.40
2023-10-10T23:48:17.699Z,63.80
2023-10-10T23:50:45.642Z,64.10
2023-10-10T23:53:16.518Z,64.00
2023-10-10T23:55:48.218Z,64.00
2023-10-10T23:58:16.412Z,64.10
